Time;durP1;ratioP1;P1;durP2;ratioP2;P2;SDS_P1;SDS_P2;PMS_P1;PMS_P2;Temp;Humidity;BMP_temperature;BMP_pressure;BME280_temperature;BME280_humidity;BME280_pressure;Samples;Min_cycle;Max_cycle;Signal;HPM_P1;HPM_P2
2023/11/14 00:01:12;;;;;;;1.13;1.10;;;;;;;21.92;57.32;96596.84;5015629;28;20473;-27
2023/11/14 00:03:39;;;;;;;1.27;1.17;;;;;;;21.93;57.13;96596.03;5016159;28;20708;-26
2023/11/14 00:06:06;;;;;;;1.37;1.20;;;;;;;21.93;57.14;96588.34;5015890;28;20201;-26
2023/11/14 00:08:32;;;;;;;1.40;1.30;;;;;;;21.92;57.48;96589.19;5016309;28;20210;-26
2023/11/14 00:10:59;;;;;;;1.43;1.27;;;;;;;21.93;57.30;96602.00;5016113;28;20199;-26
2023/11/14 00:13:25;;;;;;;1.20;1.10;;;;;;;21.92;57.12;96601.97;5016249;28;20233;-26
2023/11/14 00:15:52;;;;;;;1.23;1.13;;;;;;;21.92;57.29;96612.19;5015678;28;20222;-30
2023/11/14 00:18:19;;;;;;;1.10;1.10;;;;;;;21.91;57.48;96616.47;5015516;28;20206;-26
2023/11/14 00:20:46;;;;;;;1.20;1.10;;;;;;;21.90;57.40;96616.47;5015844;28;20234;-26
2023/11/14 00:23:12;;;;;;;1.30;1.20;;;;;;;21.91;57.47;96610.50;5015349;28;20254;-28
2023/11/14 00:25:39;;;;;;;1.30;1.20;;;;;;;21.90;57.28;96606.22;5015163;28;20289;-26
2023/11/14 00:28:07;;;;;;;1.57;1.10;;;;;;;21.90;57.24;96606.22;5015806;28;20290;-26
2023/11/14 00:30:34;;;;;;;1.03;1.03;;;;;;;21.89;57.41;96594.25;5016054;28;20882;-29
2023/11/14 00:33:00;;;;;;;1.40;1.30;;;;;;;21.89;57.38;96594.25;5015664;28;20219;-26
2023/11/14 00:35:27;;;;;;;1.10;1.00;;;;;;;21.89;57.24;96577.22;5014980;28;20218;-30
2023/11/14 00:37:54;;;;;;;1.20;1.10;;;;;;;21.89;57.34;96592.56;4998253;28;20286;-26
2023/11/14 00:40:23;;;;;;;1.27;1.20;;;;;;;21.89;57.54;96610.47;5015109;28;20213;-35
2023/11/14 00:42:50;;;;;;;1.40;1.30;;;;;;;21.90;57.29;96616.47;5015376;28;20198;-26
2023/11/14 00:45:16;;;;;;;1.83;1.37;;;;;;;21.90;57.32;96611.34;5014625;28;20198;-28
2023/11/14 00:47:43;;;;;;;1.10;1.10;;;;;;;21.89;57.44;96615.59;5015713;28;20257;-26
2023/11/14 00:50:11;;;;;;;1.30;1.20;;;;;;;21.90;57.28;96616.47;5014094;28;20270;-30
2023/11/14 00:52:38;;;;;;;0.90;0.90;;;;;;;21.89;56.83;96610.47;5012627;28;20202;-30
2023/11/14 00:55:06;;;;;;;1.00;0.90;;;;;;;21.89;57.35;96624.94;5012924;28;20226;-27
2023/11/14 00:57:33;;;;;;;1.30;1.10;;;;;;;21.89;57.53;96630.94;5014841;28;20699;-26
2023/11/14 01:00:00;;;;;;;1.43;1.30;;;;;;;21.90;57.64;96635.19;5015056;28;20741;-28
2023/11/14 01:02:26;;;;;;;1.20;1.10;;;;;;;21.90;57.49;96657.38;5014567;28;20198;-27
2023/11/14 01:04:53;;;;;;;1.00;1.00;;;;;;;21.88;57.46;96659.06;5014254;28;20233;-26
2023/11/14 01:07:20;;;;;;;1.17;1.10;;;;;;;21.89;57.40;96659.06;5014565;28;20248;-26
2023/11/14 01:09:48;;;;;;;1.40;1.07;;;;;;;21.89;57.50;96660.75;5014776;28;20213;-33
2023/11/14 01:12:14;;;;;;;1.40;1.30;;;;;;;21.88;57.34;96667.59;5014719;28;20210;-26
2023/11/14 01:14:41;;;;;;;1.20;1.10;;;;;;;21.89;57.20;96673.53;5013724;28;20265;-28
2023/11/14 01:17:07;;;;;;;1.20;1.10;;;;;;;21.90;57.49;96680.41;5014306;28;20214;-26
2023/11/14 01:19:40;;;;;;;1.00;1.00;;;;;;;21.89;57.35;96679.53;5014733;28;20198;-26
2023/11/14 01:22:07;;;;;;;1.20;1.10;;;;;;;21.89;57.42;96697.44;5010690;28;20627;-28
2023/11/14 01:24:34;;;;;;;1.00;1.00;;;;;;;21.90;57.58;96698.31;5014681;28;20218;-26
2023/11/14 01:27:02;;;;;;;1.30;1.20;;;;;;;21.89;57.51;96702.56;5013629;28;20198;-26
2023/11/14 01:29:29;;;;;;;1.30;1.20;;;;;;;21.91;57.50;96706.00;5013719;28;20294;-26
2023/11/14 01:31:55;;;;;;;1.30;1.20;;;;;;;21.89;57.27;96701.69;5014179;28;20202;-31
2023/11/14 01:34:22;;;;;;;1.43;1.17;;;;;;;21.91;57.29;96702.56;5013532;28;20226;-26
2023/11/14 01:36:51;;;;;;;1.20;1.10;;;;;;;21.90;57.44;96688.91;5012499;28;20210;-38
2023/11/14 01:39:17;;;;;;;1.17;1.07;;;;;;;21.90;57.40;96696.59;4996819;28;20202;-31
2023/11/14 01:41:45;;;;;;;0.90;0.90;;;;;;;21.90;57.45;96685.53;5013449;28;20261;-29
2023/11/14 01:44:11;;;;;;;1.33;1.10;;;;;;;21.90;57.23;96680.41;5013645;28;20214;-26
2023/11/14 01:46:38;;;;;;;1.00;1.00;;;;;;;21.90;57.27;96676.13;5013781;28;20210;-32
2023/11/14 01:49:04;;;;;;;1.30;1.20;;;;;;;21.89;57.26;96696.56;4996193;28;20206;-26
2023/11/14 01:51:31;;;;;;;1.00;1.00;;;;;;;21.87;57.46;96696.53;4997373;28;20230;-27
2023/11/14 01:53:58;;;;;;;1.10;1.00;;;;;;;21.87;57.36;96705.94;4980040;28;20254;-26
2023/11/14 01:56:24;;;;;;;1.80;1.10;;;;;;;21.87;57.13;96699.09;4995452;28;20217;-29
2023/11/14 01:58:51;;;;;;;1.13;1.10;;;;;;;21.87;57.70;96694.00;4979551;28;20221;-31
2023/11/14 02:01:21;;;;;;;1.17;1.07;;;;;;;21.87;57.31;96698.28;4977780;28;20198;-26
2023/11/14 02:03:48;;;;;;;1.00;1.00;;;;;;;21.88;57.47;96697.41;4995794;28;20585;-34
2023/11/14 02:06:15;;;;;;;1.10;1.00;;;;;;;21.88;57.43;96707.66;5012651;28;20234;-28
2023/11/14 02:08:42;;;;;;;1.10;1.10;;;;;;;21.88;57.34;96705.09;5013238;28;20226;-26
2023/11/14 02:11:08;;;;;;;1.20;1.10;;;;;;;21.88;57.38;96703.41;5012589;28;20627;-26
2023/11/14 02:13:35;;;;;;;1.13;1.00;;;;;;;21.89;57.26;96692.31;5013272;28;20226;-33
2023/11/14 02:16:02;;;;;;;1.00;1.00;;;;;;;21.88;57.51;96692.31;5013283;28;20228;-29
2023/11/14 02:18:28;;;;;;;1.13;1.03;;;;;;;21.89;57.11;96696.56;5010864;28;20264;-27
2023/11/14 02:20:55;;;;;;;1.20;1.10;;;;;;;21.87;57.30;96704.22;5012973;28;20237;-28
2023/11/14 02:23:22;;;;;;;1.33;1.23;;;;;;;21.88;57.60;96716.19;5013798;28;20218;-26
2023/11/14 02:25:48;;;;;;;0.97;0.97;;;;;;;21.88;57.43;96723.88;4979220;28;20333;-31
2023/11/14 02:28:15;;;;;;;1.00;1.00;;;;;;;21.88;57.44;96733.22;5010890;28;20576;-28
2023/11/14 02:30:42;;;;;;;2.00;1.30;;;;;;;21.88;57.49;96746.03;5012673;28;20232;-27
2023/11/14 02:33:08;;;;;;;1.17;1.07;;;;;;;21.87;57.37;96759.66;5012685;28;20218;-26
2023/11/14 02:35:35;;;;;;;1.30;1.20;;;;;;;21.87;57.14;96751.97;5012488;28;20230;-26
2023/11/14 02:38:01;;;;;;;1.10;1.10;;;;;;;21.88;57.54;96751.13;5013377;28;20202;-26
2023/11/14 02:40:28;;;;;;;1.13;1.03;;;;;;;21.86;57.58;96763.91;5012878;28;20584;-37
2023/11/14 02:42:55;;;;;;;1.20;1.10;;;;;;;21.86;57.26;96761.34;5012021;28;20577;-26
2023/11/14 02:45:22;;;;;;;1.10;1.10;;;;;;;21.87;57.27;96757.09;5011592;28;20253;-26
2023/11/14 02:47:49;;;;;;;1.33;1.00;;;;;;;21.87;57.38;96757.94;5012922;28;20656;-29
2023/11/14 02:50:30;;;;;;;1.10;1.00;;;;;;;21.88;57.41;96754.56;5012554;28;20285;-27
2023/11/14 02:52:58;;;;;;;1.30;1.20;;;;;;;21.88;57.42;96743.47;5007909;28;20260;-26
2023/11/14 02:55:25;;;;;;;1.20;1.10;;;;;;;21.89;57.34;96729.81;5012086;28;20226;-28
2023/11/14 02:57:52;;;;;;;2.10;1.20;;;;;;;21.89;57.27;96728.13;5012688;28;20241;-26
2023/11/14 03:00:19;;;;;;;0.93;0.90;;;;;;;21.88;57.38;96734.09;5012973;28;20210;-27
2023/11/14 03:02:45;;;;;;;1.37;1.20;;;;;;;21.89;57.42;96743.50;5012805;28;20624;-27
2023/11/14 03:05:15;;;;;;;1.27;1.10;;;;;;;21.89;57.19;96728.13;5012389;28;20202;-28
2023/11/14 03:07:42;;;;;;;1.20;1.10;;;;;;;21.88;57.26;96739.22;5013292;28;20198;-26
2023/11/14 03:10:09;;;;;;;1.00;1.00;;;;;;;21.88;57.29;96758.81;5012287;28;20202;-26
2023/11/14 03:12:36;;;;;;;1.10;1.10;;;;;;;21.87;57.33;96747.72;5012639;28;20271;-31
2023/11/14 03:15:02;;;;;;;1.30;1.20;;;;;;;21.87;57.28;96744.31;5012072;28;20272;-27
2023/11/14 03:17:29;;;;;;;1.57;1.17;;;;;;;21.87;57.47;96754.53;5012672;28;20202;-26
2023/11/14 03:19:55;;;;;;;1.10;1.00;;;;;;;21.77;57.30;96730.50;5010346;28;20617;-27
2023/11/14 03:22:23;;;;;;;1.60;1.20;;;;;;;21.85;57.35;96757.06;5012268;28;20252;-27
2023/11/14 03:24:49;;;;;;;1.03;1.03;;;;;;;21.87;57.27;96762.22;5011095;28;20421;-27
2023/11/14 03:27:16;;;;;;;1.23;1.13;;;;;;;21.87;57.36;96757.09;5010756;28;20665;-28
2023/11/14 03:29:44;;;;;;;1.40;1.20;;;;;;;21.87;57.46;96764.78;5011369;28;20218;-28
2023/11/14 03:32:10;;;;;;;1.17;1.10;;;;;;;21.87;57.29;96763.06;5012484;28;20293;-27
2023/11/14 03:34:37;;;;;;;1.00;1.00;;;;;;;21.89;57.30;96763.06;5011922;28;20276;-34
2023/11/14 03:37:04;;;;;;;1.20;1.10;;;;;;;21.89;57.49;96751.16;5012721;28;20286;-26
2023/11/14 03:39:33;;;;;;;1.10;1.10;;;;;;;21.88;57.26;96761.38;5012478;28;20284;-32
2023/11/14 03:42:00;;;;;;;1.03;0.93;;;;;;;21.88;57.38;96754.56;5011332;28;20202;-28
2023/11/14 03:44:27;;;;;;;1.30;1.20;;;;;;;21.90;57.35;96769.94;5011519;28;20281;-30
2023/11/14 03:46:53;;;;;;;1.17;1.07;;;;;;;21.88;57.36;96772.47;4994796;28;20209;-27
2023/11/14 03:49:20;;;;;;;1.73;1.10;;;;;;;21.89;57.43;96760.53;5012332;28;20653;-26
2023/11/14 03:51:46;;;;;;;1.10;1.10;;;;;;;21.87;57.40;96780.13;5012545;28;20234;-26
2023/11/14 03:54:13;;;;;;;1.20;1.10;;;;;;;21.87;57.22;96780.13;5010982;28;20241;-28
2023/11/14 03:56:39;;;;;;;1.00;1.00;;;;;;;21.87;57.43;96775.00;5012286;28;20249;-26
2023/11/14 03:59:06;;;;;;;1.00;1.00;;;;;;;21.86;57.25;96779.25;5012438;28;20276;-26
2023/11/14 04:01:32;;;;;;;1.03;1.00;;;;;;;21.86;57.35;96778.38;5010348;28;20198;-28
2023/11/14 04:03:59;;;;;;;1.00;1.00;;;;;;;21.86;57.53;96775.81;5010801;28;20229;-27
2023/11/14 04:06:26;;;;;;;1.00;1.00;;;;;;;21.86;57.37;96780.94;4994615;28;20190;-26
2023/11/14 04:08:52;;;;;;;1.20;1.10;;;;;;;21.85;57.48;96777.53;5012743;28;20202;-26
2023/11/14 04:11:19;;;;;;;1.30;1.20;;;;;;;21.86;57.55;96761.34;5011919;28;20220;-26
2023/11/14 04:13:47;;;;;;;1.10;1.00;;;;;;;21.86;57.77;96761.34;5011921;28;20232;-27
2023/11/14 04:16:15;;;;;;;1.00;1.00;;;;;;;21.87;57.31;96782.69;5011856;28;20226;-29
2023/11/14 04:18:42;;;;;;;0.93;0.90;;;;;;;21.87;57.47;96792.91;5004588;28;20202;-28
2023/11/14 04:21:18;;;;;;;0.90;0.90;;;;;;;21.88;57.41;96802.28;5011348;28;20206;-28
2023/11/14 04:23:46;;;;;;;0.90;0.90;;;;;;;21.87;57.29;96798.88;5011643;28;20225;-28
2023/11/14 04:26:14;;;;;;;1.10;1.00;;;;;;;21.88;57.45;96815.09;5011451;28;20202;-29
2023/11/14 04:28:41;;;;;;;1.43;1.10;;;;;;;21.87;57.50;96821.88;5010638;28;20198;-26
2023/11/14 04:31:08;;;;;;;1.20;1.10;;;;;;;21.85;57.47;96831.25;5010695;28;20198;-26
2023/11/14 04:33:35;;;;;;;1.27;1.00;;;;;;;21.87;57.29;96836.41;4993357;28;20321;-28
2023/11/14 04:36:01;;;;;;;0.90;0.90;;;;;;;21.86;57.27;96830.41;5014449;28;20261;-26
2023/11/14 04:38:28;;;;;;;1.27;1.17;;;;;;;21.85;57.39;96838.94;5016037;28;20249;-26
2023/11/14 04:40:55;;;;;;;1.10;1.00;;;;;;;21.62;57.47;96791.59;4995683;28;20198;-26
2023/11/14 04:43:21;;;;;;;1.30;1.00;;;;;;;21.85;57.45;96827.81;5013172;28;20215;-26
2023/11/14 04:45:48;;;;;;;1.00;1.00;;;;;;;21.86;57.35;96837.22;5014681;28;20202;-26
2023/11/14 04:48:14;;;;;;;0.90;0.90;;;;;;;21.86;57.39;96843.19;5015253;28;20288;-26
2023/11/14 04:50:41;;;;;;;1.07;1.07;;;;;;;21.86;57.35;96853.44;5014805;28;20200;-32
2023/11/14 04:53:08;;;;;;;1.10;1.00;;;;;;;21.86;57.48;96860.22;5014033;28;20309;-27
2023/11/14 04:55:35;;;;;;;1.27;1.17;;;;;;;21.85;57.26;96861.06;5013585;28;20632;-26
2023/11/14 04:58:03;;;;;;;1.10;1.00;;;;;;;21.88;57.44;96843.22;5015114;28;20203;-26
2023/11/14 05:00:30;;;;;;;1.20;1.10;;;;;;;21.86;57.47;96843.19;5014166;28;20198;-30
2023/11/14 05:02:56;;;;;;;1.50;1.20;;;;;;;21.86;57.46;96848.31;5009549;28;20732;-26
2023/11/14 05:05:24;;;;;;;1.00;1.00;;;;;;;21.87;57.40;96847.47;5012855;28;20202;-26
2023/11/14 05:07:50;;;;;;;1.23;1.13;;;;;;;21.82;57.15;96845.69;5013806;28;20584;-27
2023/11/14 05:10:17;;;;;;;1.47;1.07;;;;;;;21.87;57.52;96847.47;5014464;28;20203;-26
2023/11/14 05:12:44;;;;;;;1.00;1.00;;;;;;;21.87;57.26;96850.03;5014472;28;20252;-37
2023/11/14 05:15:11;;;;;;;1.07;1.03;;;;;;;21.87;57.42;96850.03;5011440;28;20227;-28
2023/11/14 05:17:39;;;;;;;1.73;1.33;;;;;;;21.87;57.31;96847.47;5013967;28;20238;-26
2023/11/14 05:20:07;;;;;;;1.30;1.20;;;;;;;21.87;57.36;96846.63;5015346;28;20285;-29
2023/11/14 05:22:33;;;;;;;2.47;1.53;;;;;;;21.87;57.39;96844.06;5014084;28;20649;-26
2023/11/14 05:25:00;;;;;;;2.13;1.50;;;;;;;21.88;57.64;96861.13;5018406;28;20202;-26
2023/11/14 05:27:27;;;;;;;2.23;1.30;;;;;;;21.89;57.74;96857.72;5014225;28;20202;-29
2023/11/14 05:29:55;;;;;;;2.07;1.50;;;;;;;21.89;57.63;96862.84;5014347;28;20248;-27
2023/11/14 05:32:22;;;;;;;1.50;1.40;;;;;;;21.89;57.52;96871.38;5013608;28;20681;-26
2023/11/14 05:34:49;;;;;;;1.63;1.30;;;;;;;21.88;57.75;96849.22;5015298;28;20226;-26
2023/11/14 05:37:15;;;;;;;2.90;1.20;;;;;;;21.89;57.72;96847.50;5014143;28;20202;-27
2023/11/14 05:39:42;;;;;;;3.50;1.43;;;;;;;21.88;57.54;96843.22;5013505;28;20598;-26
2023/11/14 05:42:08;;;;;;;1.83;1.50;;;;;;;21.86;57.72;96845.75;5012221;28;20598;-26
2023/11/14 05:44:35;;;;;;;2.00;1.47;;;;;;;21.87;57.60;96852.59;5018000;28;20226;-26
2023/11/14 05:47:02;;;;;;;1.63;1.33;;;;;;;21.89;57.78;96866.28;5011654;28;20229;-33
2023/11/14 05:49:29;;;;;;;8.33;1.53;;;;;;;21.88;57.67;96872.22;5014013;28;20206;-26
2023/11/14 05:51:56;;;;;;;1.30;1.13;;;;;;;21.88;57.54;96873.91;5014402;28;20325;-28
2023/11/14 05:54:23;;;;;;;1.63;1.30;;;;;;;21.88;57.71;96874.78;4994997;28;20272;-27
2023/11/14 05:56:49;;;;;;;2.80;1.30;;;;;;;21.88;57.54;96873.91;5012126;28;20215;-26
2023/11/14 05:59:16;;;;;;;3.77;1.43;;;;;;;21.88;57.50;96887.59;5014822;28;20630;-36
2023/11/14 06:01:43;;;;;;;13.33;1.80;;;;;;;21.87;57.65;96885.84;5013942;28;20199;-29
2023/11/14 06:04:10;;;;;;;2.07;1.43;;;;;;;21.86;57.56;96879.00;5013762;28;20609;-29
2023/11/14 06:06:37;;;;;;;1.53;1.40;;;;;;;21.88;57.80;96889.28;5011922;28;20664;-26
2023/11/14 06:09:03;;;;;;;3.93;1.60;;;;;;;21.88;57.67;96895.25;5013420;28;20268;-26
2023/11/14 06:11:30;;;;;;;4.43;2.17;;;;;;;21.87;55.65;96893.50;5013495;28;20260;-26
2023/11/14 06:13:56;;;;;;;3.70;2.10;;;;;;;21.87;55.37;96896.06;5011872;28;20233;-32
2023/11/14 06:16:23;;;;;;;5.93;2.57;;;;;;;21.86;54.41;96889.25;5012190;28;20214;-28
2023/11/14 06:18:52;;;;;;;9.17;2.73;;;;;;;21.86;53.24;96901.16;5013313;28;20209;-26
2023/11/14 06:21:19;;;;;;;6.33;2.40;;;;;;;21.84;52.67;96897.72;5012200;28;20219;-29
2023/11/14 06:23:46;;;;;;;6.97;2.47;;;;;;;21.83;52.26;96903.66;5013006;28;20269;-30
2023/11/14 06:26:13;;;;;;;6.27;2.43;;;;;;;21.81;52.71;96902.75;5013295;28;20345;-26
2023/11/14 06:28:40;;;;;;;6.00;2.67;;;;;;;21.81;52.67;96905.31;5013728;28;20202;-27
2023/11/14 06:31:06;;;;;;;5.87;2.40;;;;;;;21.81;52.27;96907.88;5012029;28;20202;-26
2023/11/14 06:33:33;;;;;;;7.80;2.60;;;;;;;21.80;52.42;96909.59;5012174;28;20234;-26
2023/11/14 06:36:00;;;;;;;6.40;2.80;;;;;;;21.80;51.57;96912.16;4995408;28;20230;-26
2023/11/14 06:38:26;;;;;;;6.83;3.27;;;;;;;21.80;51.36;96921.50;5012863;28;20198;-26
2023/11/14 06:40:58;;;;;;;6.13;2.53;;;;;;;21.77;51.28;96922.31;5006351;28;20281;-26
2023/11/14 06:43:25;;;;;;;12.73;3.13;;;;;;;21.77;51.24;96929.13;5013182;28;20637;-26
2023/11/14 06:45:51;;;;;;;10.13;3.00;;;;;;;21.75;51.33;96935.91;5013105;28;20194;-26
2023/11/14 06:48:18;;;;;;;7.40;2.90;;;;;;;21.74;51.25;96937.63;5012991;28;20293;-35
2023/11/14 06:50:44;;;;;;;5.53;2.80;;;;;;;21.75;51.75;96939.31;5012573;28;20268;-27
2023/11/14 06:53:13;;;;;;;8.03;2.53;;;;;;;21.76;51.94;96951.28;4995896;28;20592;-26
2023/11/14 06:55:40;;;;;;;6.60;2.83;;;;;;;21.76;52.56;96945.31;5012313;28;20233;-26
2023/11/14 06:58:07;;;;;;;5.97;2.40;;;;;;;21.76;52.61;96951.28;5012832;28;20195;-30
2023/11/14 07:00:35;;;;;;;7.50;3.00;;;;;;;21.78;52.90;96953.84;5011992;28;20213;-26
2023/11/14 07:03:02;;;;;;;4.53;2.60;;;;;;;21.77;52.78;96954.69;5006668;28;20225;-26
2023/11/14 07:05:30;;;;;;;6.50;2.63;;;;;;;21.76;52.73;96943.59;5011263;28;20206;-26
2023/11/14 07:07:57;;;;;;;6.97;2.80;;;;;;;21.76;52.64;96950.44;5005822;28;20202;-26
2023/11/14 07:10:24;;;;;;;10.47;2.90;;;;;;;21.77;53.18;96954.69;5012028;28;20232;-26
2023/11/14 07:12:51;;;;;;;10.77;3.20;;;;;;;21.76;52.77;96973.44;5011423;28;20217;-26
2023/11/14 07:15:20;;;;;;;7.60;3.00;;;;;;;21.76;52.99;96976.00;5011060;28;20198;-28
2023/11/14 07:17:47;;;;;;;6.13;2.50;;;;;;;21.70;53.35;96975.00;5007975;28;20209;-26
2023/11/14 07:20:20;;;;;;;4.93;2.60;;;;;;;21.77;53.60;96991.38;5012026;28;20202;-29
2023/11/14 07:22:50;;;;;;;5.13;2.53;;;;;;;21.78;53.75;97003.34;5006261;28;20203;-26
2023/11/14 07:25:17;;;;;;;5.40;2.67;;;;;;;21.78;53.99;97010.13;5005832;28;20588;-34
2023/11/14 07:27:46;;;;;;;5.07;2.43;;;;;;;21.80;54.17;97003.38;5010079;28;20213;-27
2023/11/14 07:30:13;;;;;;;5.07;2.37;;;;;;;21.80;54.29;97011.91;5008775;28;20206;-28
2023/11/14 07:32:40;;;;;;;5.50;2.50;;;;;;;21.81;54.44;97026.41;5008814;28;20389;-32
2023/11/14 07:35:10;;;;;;;5.00;2.20;;;;;;;21.81;54.28;97012.75;5008421;28;20297;-33
2023/11/14 07:37:37;;;;;;;6.07;2.40;;;;;;;21.81;54.44;97026.41;5009442;28;20629;-26
2023/11/14 07:40:07;;;;;;;4.80;2.43;;;;;;;21.82;54.40;97024.72;5009603;28;20206;-26
2023/11/14 07:42:33;;;;;;;5.07;2.40;;;;;;;21.82;54.93;97034.97;5008350;28;20210;-30
2023/11/14 07:45:00;;;;;;;3.43;2.33;;;;;;;21.81;54.78;97035.78;5004554;28;20210;-27
2023/11/14 07:47:26;;;;;;;5.00;2.30;;;;;;;21.81;54.79;97022.97;5008661;28;20207;-37
2023/11/14 07:49:53;;;;;;;6.20;2.40;;;;;;;21.81;54.89;97008.50;5009024;28;20210;-28
2023/11/14 07:52:20;;;;;;;4.33;2.17;;;;;;;21.82;54.90;96997.47;5009132;28;20209;-26
2023/11/14 07:54:47;;;;;;;4.17;2.10;;;;;;;21.84;55.04;96997.50;5006033;28;20242;-38
2023/11/14 07:57:14;;;;;;;5.20;2.30;;;;;;;21.84;55.02;96995.78;5008519;28;20249;-29
2023/11/14 07:59:40;;;;;;;4.13;2.40;;;;;;;21.85;55.16;97022.22;5006749;28;20241;-26
2023/11/14 08:02:07;;;;;;;3.43;2.07;;;;;;;21.85;55.27;97025.66;5008364;28;20506;-32
2023/11/14 08:04:34;;;;;;;3.67;2.10;;;;;;;21.87;55.29;97034.22;5008911;28;20839;-28
2023/11/14 08:07:01;;;;;;;5.03;2.00;;;;;;;21.87;55.43;97049.56;5007932;28;20208;-26
2023/11/14 08:09:28;;;;;;;3.83;1.90;;;;;;;21.89;55.18;97059.81;5008833;28;20672;-27
2023/11/14 08:11:55;;;;;;;3.50;2.07;;;;;;;21.88;55.39;97058.97;5005173;28;20284;-26
2023/11/14 08:14:21;;;;;;;4.10;2.07;;;;;;;21.89;55.35;97057.28;5012671;28;20230;-30
2023/11/14 08:16:48;;;;;;;3.33;2.20;;;;;;;21.89;55.31;97054.72;5012793;28;20268;-29
2023/11/14 08:19:15;;;;;;;3.47;1.83;;;;;;;21.89;55.24;97049.59;5010315;28;20206;-30
2023/11/14 08:21:41;;;;;;;2.40;1.70;;;;;;;21.89;55.30;97041.91;5011812;28;20280;-31
2023/11/14 08:24:08;;;;;;;3.83;2.33;;;;;;;21.88;55.49;97025.72;5012279;28;20288;-27
2023/11/14 08:26:36;;;;;;;6.23;2.47;;;;;;;21.89;55.32;97022.31;5011605;28;20199;-30
2023/11/14 08:29:03;;;;;;;3.47;2.20;;;;;;;21.88;55.48;97018.06;5015375;28;20348;-29
2023/11/14 08:31:29;;;;;;;3.87;2.10;;;;;;;21.89;55.51;97022.31;5012534;28;20214;-34
2023/11/14 08:33:56;;;;;;;2.60;2.10;;;;;;;21.89;55.54;97032.56;5015250;28;20312;-32
2023/11/14 08:36:23;;;;;;;5.30;2.40;;;;;;;21.90;55.64;97041.09;5012724;28;20700;-29
2023/11/14 08:38:49;;;;;;;4.03;2.10;;;;;;;21.90;55.53;97052.19;4996851;28;20752;-34
2023/11/14 08:41:16;;;;;;;6.17;2.20;;;;;;;21.91;55.81;97053.06;5012432;28;20222;-26
2023/11/14 08:43:43;;;;;;;3.13;1.80;;;;;;;21.91;55.74;97068.41;5013678;28;20229;-33
2023/11/14 08:46:10;;;;;;;5.47;2.43;;;;;;;21.92;55.77;97068.44;5011725;28;20249;-26
2023/11/14 08:48:37;;;;;;;3.17;1.80;;;;;;;21.91;55.67;97069.28;5013917;28;20704;-29
2023/11/14 08:51:04;;;;;;;4.63;2.17;;;;;;;21.91;55.93;97078.63;5011634;28;20202;-28
2023/11/14 08:53:30;;;;;;;2.40;1.90;;;;;;;21.90;55.87;97075.22;4993790;28;20230;-28
2023/11/14 08:55:57;;;;;;;4.57;2.30;;;;;;;21.89;55.75;97078.59;5011369;28;20222;-32
2023/11/14 08:58:24;;;;;;;4.57;2.03;;;;;;;21.90;55.67;97077.75;5011969;28;20227;-32
2023/11/14 09:00:53;;;;;;;3.17;1.80;;;;;;;21.91;55.99;97074.41;5011673;28;20233;-29
2023/11/14 09:03:19;;;;;;;4.33;2.00;;;;;;;21.90;55.88;97071.81;5010589;28;20639;-28
2023/11/14 09:05:46;;;;;;;2.93;2.10;;;;;;;21.90;56.02;97071.81;5012266;28;20657;-27
2023/11/14 09:08:13;;;;;;;3.00;2.00;;;;;;;21.90;56.01;97074.38;5011566;28;20246;-28
2023/11/14 09:10:39;;;;;;;3.23;2.00;;;;;;;21.90;56.14;97082.88;5012340;28;20210;-26
2023/11/14 09:13:06;;;;;;;3.17;2.00;;;;;;;21.90;55.79;97074.38;5011562;28;20683;-28
2023/11/14 09:15:33;;;;;;;3.53;2.30;;;;;;;21.92;55.98;97080.34;5010850;28;20221;-28
2023/11/14 09:18:00;;;;;;;6.07;2.50;;;;;;;21.91;55.88;97082.06;5010984;28;20239;-29
2023/11/14 09:20:26;;;;;;;2.03;1.83;;;;;;;21.92;55.89;97082.91;5011241;28;20228;-30
2023/11/14 09:22:54;;;;;;;3.53;1.97;;;;;;;21.93;55.90;97089.78;5010859;28;20234;-26
2023/11/14 09:25:25;;;;;;;2.43;1.77;;;;;;;21.91;55.74;97087.19;5007786;28;20637;-29
2023/11/14 09:27:51;;;;;;;3.33;2.00;;;;;;;21.92;55.89;97077.78;5010480;28;20201;-30
2023/11/14 09:30:18;;;;;;;3.23;1.87;;;;;;;21.91;56.09;97079.50;5012366;28;20302;-28
2023/11/14 09:32:46;;;;;;;3.00;1.90;;;;;;;21.92;56.03;97077.78;5006721;28;20755;-26
2023/11/14 09:35:14;;;;;;;3.67;2.27;;;;;;;21.90;55.87;97067.53;5010296;28;20206;-30
2023/11/14 09:37:42;;;;;;;3.47;1.70;;;;;;;21.90;56.06;97051.34;5006267;28;20231;-31
2023/11/14 09:40:13;;;;;;;3.73;1.90;;;;;;;21.89;56.07;97053.03;5011243;28;20206;-26
2023/11/14 09:42:39;;;;;;;3.47;1.93;;;;;;;21.90;55.81;97043.66;4993419;28;20202;-26
2023/11/14 09:45:06;;;;;;;4.10;1.80;;;;;;;21.89;55.93;97042.78;5011638;28;20230;-27
2023/11/14 09:47:33;;;;;;;2.67;1.90;;;;;;;21.90;55.84;97029.16;5010668;28;20226;-29
2023/11/14 09:50:00;;;;;;;2.43;1.87;;;;;;;21.90;55.87;97013.81;5010932;28;20237;-29
2023/11/14 09:52:26;;;;;;;3.23;1.97;;;;;;;21.90;56.07;97020.63;5010868;28;20679;-26
2023/11/14 09:54:53;;;;;;;3.30;1.90;;;;;;;21.91;56.04;97030.03;4980455;28;20277;-27
2023/11/14 09:57:19;;;;;;;2.80;2.00;;;;;;;21.91;56.02;97028.34;4976691;28;20325;-33
2023/11/14 09:59:46;;;;;;;4.90;2.03;;;;;;;21.92;55.91;97031.75;5011406;28;20202;-28
2023/11/14 10:02:13;;;;;;;3.70;1.93;;;;;;;21.89;56.06;97031.69;5010644;28;20190;-29
2023/11/14 10:04:42;;;;;;;3.37;1.70;;;;;;;21.93;56.08;97043.72;4993648;28;20252;-28
2023/11/14 10:07:09;;;;;;;2.87;2.00;;;;;;;21.90;56.16;97041.94;5007466;28;20258;-31
2023/11/14 10:09:39;;;;;;;4.27;1.83;;;;;;;21.91;55.97;97040.25;4977321;28;20855;-33
2023/11/14 10:12:08;;;;;;;4.03;1.90;;;;;;;21.93;56.07;97036.06;4990973;28;20207;-26
2023/11/14 10:14:50;;;;;;;3.20;1.83;;;;;;;21.88;56.29;97012.06;5008166;28;20288;-28
2023/11/14 10:17:18;;;;;;;3.73;1.83;;;;;;;21.91;56.25;97001.88;5010214;28;20747;-26
2023/11/14 10:20:17;;;;;;;2.70;1.83;;;;;;;21.91;56.14;96996.78;5008195;28;20202;-26
2023/11/14 10:22:52;;;;;;;3.07;1.93;;;;;;;21.91;56.23;96991.66;5001895;28;20284;-26
2023/11/14 10:25:31;;;;;;;4.63;2.10;;;;;;;21.91;56.29;97010.44;5010498;28;20517;-29
2023/11/14 10:28:04;;;;;;;2.83;1.73;;;;;;;21.90;56.26;97025.75;5008792;28;20260;-28
2023/11/14 10:30:42;;;;;;;2.93;1.90;;;;;;;21.91;56.25;97025.78;5010187;28;20242;-27
2023/11/14 10:33:09;;;;;;;8.13;2.00;;;;;;;21.90;56.29;97036.84;5007665;28;20766;-27
2023/11/14 10:35:36;;;;;;;7.03;2.10;;;;;;;21.92;56.21;97049.66;5009339;28;20587;-27
2023/11/14 10:38:19;;;;;;;2.60;1.70;;;;;;;21.91;56.31;97041.13;5010034;28;20214;-29
2023/11/14 10:40:57;;;;;;;3.93;1.77;;;;;;;21.93;56.43;97042.00;5009452;28;20265;-28
2023/11/14 10:43:35;;;;;;;2.93;1.80;;;;;;;21.87;56.32;97034.22;5009604;28;20226;-27
2023/11/14 10:46:09;;;;;;;4.97;2.07;;;;;;;21.91;56.21;97030.91;4991636;28;20202;-30
2023/11/14 10:48:35;;;;;;;2.93;1.70;;;;;;;21.92;56.19;97012.16;5008204;28;20225;-49
2023/11/14 10:51:03;;;;;;;3.13;1.80;;;;;;;21.92;56.29;97026.63;5009728;28;20611;-28
2023/11/14 10:53:30;;;;;;;4.43;1.87;;;;;;;21.91;56.22;96997.66;4991591;28;20230;-28
2023/11/14 10:55:57;;;;;;;5.43;1.70;;;;;;;21.90;56.31;96998.47;4992148;28;20225;-31
2023/11/14 10:58:23;;;;;;;2.63;1.60;;;;;;;21.91;56.41;97036.03;5009807;28;20324;-29
2023/11/14 11:00:51;;;;;;;5.27;1.97;;;;;;;21.82;56.21;96988.91;5008894;28;20209;-28
2023/11/14 11:03:17;;;;;;;2.97;1.80;;;;;;;21.88;56.19;97007.81;5004701;28;20417;-26
2023/11/14 11:05:46;;;;;;;5.20;2.00;;;;;;;21.87;56.45;96995.00;4991442;28;20206;-30
2023/11/14 11:08:13;;;;;;;2.60;1.70;;;;;;;21.92;56.65;96989.13;5008832;28;20199;-26
2023/11/14 11:10:42;;;;;;;2.67;1.80;;;;;;;21.91;56.51;96981.41;5008916;28;20242;-26
2023/11/14 11:13:11;;;;;;;2.73;1.70;;;;;;;21.92;56.46;96986.56;5008426;28;20249;-30
2023/11/14 11:15:42;;;;;;;5.43;2.10;;;;;;;21.91;56.58;96989.97;4975139;28;20229;-27
2023/11/14 11:18:09;;;;;;;2.63;1.80;;;;;;;21.91;56.39;97002.75;4991254;28;20218;-29
2023/11/14 11:20:35;;;;;;;3.03;1.70;;;;;;;21.93;56.72;97013.03;4975746;28;20245;-36
2023/11/14 11:23:08;;;;;;;3.00;1.67;;;;;;;21.92;56.62;97009.59;5008714;28;20612;-29
2023/11/14 11:25:36;;;;;;;3.07;2.00;;;;;;;21.91;56.71;97005.31;5009122;28;20221;-30
2023/11/14 11:28:21;;;;;;;3.30;2.00;;;;;;;21.93;56.62;97008.75;5008822;28;20289;-27
2023/11/14 11:31:13;;;;;;;2.40;1.53;;;;;;;21.92;56.74;97008.72;5008512;28;20206;-31
2023/11/14 11:33:48;;;;;;;3.23;1.80;;;;;;;21.92;56.55;96994.25;5006865;28;20234;-28
2023/11/14 11:36:20;;;;;;;4.65;1.95;;;;;;;21.92;56.47;96999.34;5008885;28;20214;-31